Detall de PIREP

Printer-friendly versionPDF version

[2013/09/15 09:20:00]
Flight IATA:CT3227
Pilot Number:012
Company ICAO:CAT
Aircraft Type:B752/E
PAX:180
Aircraft Registration:PAX
Departing Airport: EGLL
Destination Airport: LEPA
Alternate Airport:LEBL
Online: VATSIM
Route:MID UL151 SITET UN859 BCN UZ167 LORES
Flight Level:F370
No Slew and time accel
No pause
Crash detect
Detect pilot in Cockpit between each 30 and 45 minutes
09:20 Zero fuel Weight: 171319 Lbs, Fuel Weight: 20917 Lbs
09:20 VATSIM:EGLL 150850Z 22012KT 9999 FEW012 13/09 Q1013
09:20 VATSIM:LEPA 150900Z 00000KT 9999 FEW024 FEW026TCU 26/21 Q1015 NOSIG
09:20 VOICE CATALONIAN
09:25 Parking Brakes off
09:33 Take-off
09:33 Take off Weight: 190830 Lbs
09:33 Wind: 221º @ 012 Knots Heading: 267º
09:33 POS N51º 27´ 53´´ W000º 27´ 11´´
09:33 Gear Up: 182 Knots
09:33 Flaps:2 at 182 Knots
09:33 Flaps:1 at 202 Knots
09:34 Flaps:0 at 229 Knots
09:48 Wind:343º@073 Knots Heading: 166º Ground Speed: 526 Knots Altitude 36479 ft
09:48 TOC
09:48 Fuel Weight: 15313 Lb
10:03 Wind:001º@081 Knots Heading: 162º Ground Speed: 537 Knots Altitude 37129 ft
10:18 Wind:000º@083 Knots Heading: 169º Ground Speed: 539 Knots Altitude 37168 ft
10:33 Wind:351º@071 Knots Heading: 176º Ground Speed: 533 Knots Altitude 37194 ft
10:44 TOD
10:44 Fuel Weight: 8697 Lb
10:48 Wind:291º@050 Knots Heading: 153º Ground Speed: 484 Knots Altitude 28382 ft
11:03 Wind:304º@010 Knots Heading: 209º Ground Speed: 253 Knots Altitude 5567 ft
11:04 Flaps:1 at 232 Knots
11:04 Flaps:2 at 211 Knots
11:05 Flaps:3 at 184 Knots
11:08 Gear Down: 169 Knots
11:08 Flaps:4 at 169 Knots
11:08 Flaps:5 at 157 Knots
11:08 Flaps:6 at 147 Knots
11:11 TouchDown:Rate -372 ft/min Speed: 121 Knots
11:12 VATSIM:LEPA 151100Z 23008KT 200V260 9999 FEW022TCU SCT034 27/21 Q1015 NOSIG
11:12 Land
11:12 Wind:225º@006 Knots
11:12 Heading: 240º
11:12 Flight Duration: 01:39
11:12 Landing Weight: 177899 Lbs
11:12 POS N39º 32´ 45´´ E002º 44´ 29´´
11:15 Parking brakes on
11:15 Block to Block Duration: 01:50
11:15 Final Fuel: 6203 Lbls
11:15 Spent Fuel: 14713 Lbls
11:15 Flight Length: 750 NM
11:15 TOD Land Length: 146 NM

Exportar CSV

Powered by Drupal - Modified by Danger4k